CCM74AB LFPO-LFKB
Flight info
| Callsign | CCM74AB |
|---|---|
| Flight time | 1h 26m |
| Altitude | 39000 |
| Route | LATRA DCT LAMUT DCT UTUVA DCT TITVA DCT NOQAS DCT KOLON DCT NARTI UP991 NIRDO |
| Aircraft | A320/M-SDE2E3FGIJ1RWY/HB1 |
Departure
| Time | 2026-04-30 20:03 |
|---|---|
| Airport | Paris-Orly Airport (LFPO) |
Arrival
| Time | 2026-04-30 21:30 |
|---|---|
| Airport | Bastia-Poretta International airport (LFKB) |
| Time | Latitude | Longitude | Altitude | Speed | Heading |
|---|---|---|---|---|---|
| 2026-04-30 19:26 | 48.72749 | 2.35788 | 290 ft | 0 kts | 173° |
| 2026-04-30 19:46 | 48.72763 | 2.35785 | 289 ft | 4 kts | 173° |
| 2026-04-30 19:47 | 48.72784 | 2.35779 | 285 ft | 4 kts | 138° |
| 2026-04-30 19:47 | 48.72791 | 2.35762 | 288 ft | 4 kts | 90° |
| 2026-04-30 19:47 | 48.72785 | 2.35716 | 286 ft | 4 kts | 73° |
| 2026-04-30 19:47 | 48.72777 | 2.35677 | 287 ft | 4 kts | 77° |
| 2026-04-30 19:48 | 48.72776 | 2.35638 | 287 ft | 4 kts | 110° |
| 2026-04-30 19:48 | 48.72787 | 2.35604 | 288 ft | 4 kts | 128° |
| 2026-04-30 19:48 | 48.72806 | 2.35580 | 286 ft | 4 kts | 162° |
| 2026-04-30 19:48 | 48.72826 | 2.35571 | 286 ft | 1 kts | 164° |
| 2026-04-30 19:50 | 48.72823 | 2.35572 | 286 ft | 2 kts | 165° |
| 2026-04-30 19:51 | 48.72792 | 2.35585 | 288 ft | 7 kts | 164° |
| 2026-04-30 19:51 | 48.72731 | 2.35611 | 283 ft | 11 kts | 164° |
| 2026-04-30 19:51 | 48.72655 | 2.35644 | 286 ft | 11 kts | 164° |
| 2026-04-30 19:51 | 48.72579 | 2.35676 | 287 ft | 11 kts | 164° |
| 2026-04-30 19:52 | 48.72504 | 2.35699 | 282 ft | 11 kts | 181° |
| 2026-04-30 19:52 | 48.72446 | 2.35640 | 283 ft | 10 kts | 218° |
| 2026-04-30 19:52 | 48.72380 | 2.35632 | 283 ft | 10 kts | 165° |
| 2026-04-30 19:52 | 48.72318 | 2.35629 | 281 ft | 9 kts | 196° |
| 2026-04-30 19:53 | 48.72257 | 2.35602 | 281 ft | 9 kts | 191° |
| 2026-04-30 19:53 | 48.72197 | 2.35613 | 284 ft | 8 kts | 166° |
| 2026-04-30 19:53 | 48.72141 | 2.35635 | 285 ft | 8 kts | 165° |
| 2026-04-30 19:53 | 48.72103 | 2.35655 | 285 ft | 0 kts | 156° |
| 2026-04-30 19:57 | 48.72091 | 2.35664 | 284 ft | 3 kts | 153° |
| 2026-04-30 19:59 | 48.72087 | 2.35667 | 283 ft | 1 kts | 152° |
| 2026-04-30 19:59 | 48.72080 | 2.35673 | 284 ft | 0 kts | 149° |
| 2026-04-30 20:00 | 48.72079 | 2.35674 | 283 ft | 2 kts | 149° |
| 2026-04-30 20:00 | 48.72039 | 2.35732 | 282 ft | 13 kts | 128° |
| 2026-04-30 20:00 | 48.72026 | 2.35760 | 281 ft | 0 kts | 122° |
| 2026-04-30 20:02 | 48.72007 | 2.35814 | 284 ft | 15 kts | 121° |
| 2026-04-30 20:02 | 48.71966 | 2.35983 | 282 ft | 18 kts | 83° |
| 2026-04-30 20:03 | 48.72226 | 2.37423 | 283 ft | 137 kts | 75° |
| 2026-04-30 20:03 | 48.72494 | 2.38951 | 734 ft | 156 kts | 76° |
| 2026-04-30 20:03 | 48.72798 | 2.40616 | 1362 ft | 174 kts | 76° |
| 2026-04-30 20:03 | 48.73145 | 2.42493 | 1845 ft | 195 kts | 77° |
| 2026-04-30 20:04 | 48.73532 | 2.44593 | 2366 ft | 220 kts | 78° |
| 2026-04-30 20:04 | 48.73962 | 2.46947 | 2974 ft | 242 kts | 79° |
| 2026-04-30 20:04 | 48.74240 | 2.49489 | 3765 ft | 254 kts | 87° |
| 2026-04-30 20:05 | 48.74410 | 2.55051 | 5509 ft | 275 kts | 92° |
| 2026-04-30 20:05 | 48.73958 | 2.57834 | 6453 ft | 275 kts | 123° |
| 2026-04-30 20:05 | 48.70811 | 2.60772 | 8422 ft | 273 kts | 166° |
| 2026-04-30 20:06 | 48.68936 | 2.61387 | 9354 ft | 280 kts | 168° |
| 2026-04-30 20:06 | 48.67003 | 2.61956 | 10250 ft | 285 kts | 168° |
| 2026-04-30 20:06 | 48.65014 | 2.62188 | 11140 ft | 290 kts | 182° |
| 2026-04-30 20:06 | 48.63001 | 2.61646 | 11912 ft | 304 kts | 195° |
| 2026-04-30 20:07 | 48.60983 | 2.60323 | 12287 ft | 328 kts | 205° |
| 2026-04-30 20:07 | 48.58925 | 2.58723 | 13000 ft | 336 kts | 205° |
| 2026-04-30 20:07 | 48.54699 | 2.55462 | 14584 ft | 346 kts | 204° |
| 2026-04-30 20:08 | 48.52547 | 2.53804 | 15314 ft | 350 kts | 204° |
| 2026-04-30 20:08 | 48.51078 | 2.52672 | 15796 ft | 352 kts | 204° |
| 2026-04-30 20:08 | 48.48882 | 2.50980 | 16520 ft | 357 kts | 204° |
| 2026-04-30 20:08 | 48.46656 | 2.49280 | 17255 ft | 360 kts | 202° |
| 2026-04-30 20:09 | 48.44336 | 2.48003 | 17957 ft | 361 kts | 194° |
| 2026-04-30 20:09 | 48.41915 | 2.46910 | 18653 ft | 365 kts | 194° |
| 2026-04-30 20:09 | 48.37009 | 2.44694 | 19948 ft | 371 kts | 193° |
| 2026-04-30 20:10 | 48.32017 | 2.42479 | 21239 ft | 376 kts | 189° |
| 2026-04-30 20:10 | 48.29433 | 2.41953 | 21879 ft | 375 kts | 179° |
| 2026-04-30 20:10 | 48.26832 | 2.42188 | 22518 ft | 375 kts | 168° |
| 2026-04-30 20:11 | 48.21842 | 2.44498 | 23791 ft | 378 kts | 158° |
| 2026-04-30 20:11 | 48.19355 | 2.45828 | 24316 ft | 381 kts | 158° |
| 2026-04-30 20:11 | 48.16851 | 2.47163 | 24820 ft | 384 kts | 159° |
| 2026-04-30 20:12 | 48.11776 | 2.49847 | 25813 ft | 389 kts | 159° |
| 2026-04-30 20:12 | 48.09209 | 2.51200 | 26297 ft | 392 kts | 159° |
| 2026-04-30 20:12 | 48.06626 | 2.52549 | 26772 ft | 395 kts | 159° |
| 2026-04-30 20:13 | 48.04014 | 2.53866 | 27234 ft | 397 kts | 160° |
| 2026-04-30 20:13 | 48.01378 | 2.55158 | 27671 ft | 400 kts | 160° |
| 2026-04-30 20:13 | 47.98720 | 2.56441 | 28128 ft | 403 kts | 160° |
| 2026-04-30 20:13 | 47.96047 | 2.57729 | 28566 ft | 405 kts | 160° |
| 2026-04-30 20:14 | 47.93357 | 2.59037 | 28988 ft | 408 kts | 160° |
| 2026-04-30 20:14 | 47.90651 | 2.60361 | 29402 ft | 411 kts | 160° |
| 2026-04-30 20:14 | 47.87928 | 2.61700 | 29815 ft | 413 kts | 160° |
| 2026-04-30 20:14 | 47.85191 | 2.63048 | 30206 ft | 416 kts | 160° |
| 2026-04-30 20:15 | 47.82436 | 2.64400 | 30536 ft | 418 kts | 160° |
| 2026-04-30 20:15 | 47.79667 | 2.65757 | 30863 ft | 420 kts | 160° |
| 2026-04-30 20:15 | 47.76881 | 2.67120 | 31189 ft | 423 kts | 160° |
| 2026-04-30 20:15 | 47.74111 | 2.68473 | 31439 ft | 426 kts | 160° |
| 2026-04-30 20:16 | 47.71283 | 2.69852 | 31714 ft | 429 kts | 160° |
| 2026-04-30 20:16 | 47.68440 | 2.71238 | 32031 ft | 431 kts | 160° |
| 2026-04-30 20:16 | 47.65598 | 2.72623 | 32449 ft | 430 kts | 160° |
| 2026-04-30 20:16 | 47.62761 | 2.74000 | 32872 ft | 429 kts | 160° |
| 2026-04-30 20:17 | 47.59927 | 2.75373 | 33289 ft | 428 kts | 160° |
| 2026-04-30 20:17 | 47.57101 | 2.76741 | 33708 ft | 427 kts | 160° |
| 2026-04-30 20:17 | 47.54276 | 2.78113 | 34101 ft | 427 kts | 161° |
| 2026-04-30 20:17 | 47.51450 | 2.79484 | 34424 ft | 428 kts | 161° |
| 2026-04-30 20:18 | 47.48620 | 2.80849 | 34738 ft | 428 kts | 161° |
| 2026-04-30 20:18 | 47.45789 | 2.82213 | 35045 ft | 428 kts | 161° |
| 2026-04-30 20:18 | 47.42951 | 2.83580 | 35351 ft | 429 kts | 161° |
| 2026-04-30 20:18 | 47.40112 | 2.84941 | 35653 ft | 429 kts | 161° |
| 2026-04-30 20:19 | 47.37277 | 2.86300 | 35948 ft | 429 kts | 161° |
| 2026-04-30 20:19 | 47.34437 | 2.87663 | 36241 ft | 429 kts | 161° |
| 2026-04-30 20:19 | 47.31601 | 2.89025 | 36514 ft | 429 kts | 161° |
| 2026-04-30 20:19 | 47.28761 | 2.90394 | 36754 ft | 430 kts | 161° |
| 2026-04-30 20:20 | 47.25909 | 2.91765 | 37026 ft | 430 kts | 161° |
| 2026-04-30 20:20 | 47.23062 | 2.93128 | 37294 ft | 431 kts | 161° |
| 2026-04-30 20:20 | 47.20216 | 2.94485 | 37558 ft | 431 kts | 162° |
| 2026-04-30 20:20 | 47.17362 | 2.95841 | 37835 ft | 430 kts | 162° |
| 2026-04-30 20:21 | 47.14516 | 2.97192 | 38094 ft | 430 kts | 162° |
| 2026-04-30 20:21 | 47.11664 | 2.98541 | 38364 ft | 430 kts | 162° |
| 2026-04-30 20:21 | 47.08807 | 2.99825 | 38592 ft | 430 kts | 163° |
| 2026-04-30 20:21 | 47.05930 | 3.01034 | 38848 ft | 430 kts | 164° |
| 2026-04-30 20:22 | 47.03046 | 3.02197 | 39014 ft | 430 kts | 165° |
| 2026-04-30 20:22 | 47.00148 | 3.03344 | 39136 ft | 432 kts | 165° |
| 2026-04-30 20:22 | 46.97249 | 3.04492 | 39166 ft | 432 kts | 165° |
| 2026-04-30 20:23 | 46.91447 | 3.06834 | 39161 ft | 432 kts | 165° |
| 2026-04-30 20:23 | 46.85648 | 3.09219 | 39165 ft | 434 kts | 165° |
| 2026-04-30 20:24 | 46.79843 | 3.11612 | 39165 ft | 434 kts | 165° |
| 2026-04-30 20:24 | 46.74025 | 3.13986 | 39165 ft | 434 kts | 165° |
| 2026-04-30 20:25 | 46.65291 | 3.17521 | 39175 ft | 434 kts | 165° |
| 2026-04-30 20:26 | 46.56559 | 3.21068 | 39184 ft | 434 kts | 165° |
| 2026-04-30 20:26 | 46.47818 | 3.24606 | 39173 ft | 435 kts | 165° |
| 2026-04-30 20:27 | 46.36177 | 3.29276 | 39177 ft | 436 kts | 165° |
| 2026-04-30 20:28 | 46.24471 | 3.33971 | 39181 ft | 437 kts | 165° |
| 2026-04-30 20:30 | 46.09807 | 3.39816 | 39186 ft | 438 kts | 166° |
| 2026-04-30 20:31 | 45.92180 | 3.46794 | 39203 ft | 438 kts | 166° |
| 2026-04-30 20:32 | 45.83681 | 3.51579 | 39205 ft | 441 kts | 147° |
| 2026-04-30 20:32 | 45.78561 | 3.56435 | 39209 ft | 442 kts | 148° |
| 2026-04-30 20:33 | 45.70858 | 3.63685 | 39211 ft | 442 kts | 148° |
| 2026-04-30 20:34 | 45.63134 | 3.70916 | 39223 ft | 443 kts | 148° |
| 2026-04-30 20:35 | 45.55408 | 3.78148 | 39229 ft | 443 kts | 148° |
| 2026-04-30 20:35 | 45.47668 | 3.85354 | 39224 ft | 443 kts | 148° |
| 2026-04-30 20:36 | 45.42498 | 3.90149 | 39221 ft | 444 kts | 148° |
| 2026-04-30 20:37 | 45.35205 | 3.98213 | 39223 ft | 446 kts | 131° |
| 2026-04-30 20:37 | 45.31515 | 4.05336 | 39219 ft | 448 kts | 127° |
| 2026-04-30 20:38 | 45.27855 | 4.12501 | 39214 ft | 449 kts | 127° |
| 2026-04-30 20:38 | 45.24174 | 4.19659 | 39215 ft | 449 kts | 127° |
| 2026-04-30 20:39 | 45.18639 | 4.30335 | 39224 ft | 450 kts | 128° |
| 2026-04-30 20:40 | 45.12991 | 4.40988 | 39235 ft | 451 kts | 128° |
| 2026-04-30 20:40 | 45.09217 | 4.48087 | 39231 ft | 452 kts | 128° |
| 2026-04-30 20:41 | 45.03542 | 4.58767 | 39239 ft | 453 kts | 128° |
| 2026-04-30 20:41 | 44.99744 | 4.65885 | 39239 ft | 454 kts | 128° |
| 2026-04-30 20:42 | 44.95944 | 4.72997 | 39244 ft | 454 kts | 128° |
| 2026-04-30 20:43 | 44.90226 | 4.83649 | 39247 ft | 454 kts | 128° |
| 2026-04-30 20:43 | 44.86399 | 4.90742 | 39230 ft | 455 kts | 129° |
| 2026-04-30 20:44 | 44.80657 | 5.01407 | 39223 ft | 456 kts | 128° |
| 2026-04-30 20:45 | 44.72948 | 5.15646 | 39229 ft | 458 kts | 129° |
| 2026-04-30 20:45 | 44.69073 | 5.22755 | 39235 ft | 458 kts | 129° |
| 2026-04-30 20:46 | 44.61331 | 5.36926 | 39242 ft | 459 kts | 128° |
| 2026-04-30 20:47 | 44.55482 | 5.47592 | 39241 ft | 460 kts | 129° |
| 2026-04-30 20:48 | 44.49621 | 5.58237 | 39243 ft | 460 kts | 129° |
| 2026-04-30 20:48 | 44.45700 | 5.65344 | 39233 ft | 461 kts | 129° |
| 2026-04-30 20:49 | 44.41769 | 5.72442 | 39231 ft | 462 kts | 128° |
| 2026-04-30 20:50 | 44.35851 | 5.83098 | 39231 ft | 463 kts | 128° |
| 2026-04-30 20:50 | 44.31899 | 5.90201 | 39234 ft | 463 kts | 128° |
| 2026-04-30 20:51 | 44.27936 | 5.97302 | 39239 ft | 464 kts | 128° |
| 2026-04-30 20:51 | 44.21974 | 6.07940 | 39219 ft | 465 kts | 129° |
| 2026-04-30 20:52 | 44.17988 | 6.15036 | 39227 ft | 465 kts | 128° |
| 2026-04-30 20:53 | 44.11999 | 6.25663 | 39242 ft | 465 kts | 128° |
| 2026-04-30 20:53 | 44.07997 | 6.32743 | 39247 ft | 466 kts | 128° |
| 2026-04-30 20:54 | 44.01984 | 6.43344 | 39234 ft | 466 kts | 129° |
| 2026-04-30 20:55 | 43.96633 | 6.52772 | 39252 ft | 467 kts | 128° |
| 2026-04-30 20:55 | 43.92611 | 6.59826 | 39254 ft | 466 kts | 128° |
| 2026-04-30 20:56 | 43.86552 | 6.70390 | 39237 ft | 466 kts | 128° |
| 2026-04-30 20:57 | 43.80502 | 6.80941 | 39219 ft | 467 kts | 129° |
| 2026-04-30 20:57 | 43.76448 | 6.87983 | 39226 ft | 468 kts | 129° |
| 2026-04-30 20:58 | 43.70324 | 6.98490 | 39237 ft | 468 kts | 130° |
| 2026-04-30 20:58 | 43.66077 | 7.05311 | 39229 ft | 468 kts | 131° |
| 2026-04-30 20:59 | 43.59637 | 7.15448 | 39215 ft | 468 kts | 131° |
| 2026-04-30 21:00 | 43.52511 | 7.30357 | 39196 ft | 470 kts | 113° |
| 2026-04-30 21:01 | 43.48460 | 7.42683 | 39128 ft | 472 kts | 114° |
| 2026-04-30 21:01 | 43.45729 | 7.50911 | 37998 ft | 474 kts | 114° |
| 2026-04-30 21:02 | 43.44363 | 7.55033 | 37287 ft | 474 kts | 114° |
| 2026-04-30 21:02 | 43.42995 | 7.59163 | 36454 ft | 476 kts | 114° |
| 2026-04-30 21:02 | 43.41616 | 7.63323 | 35666 ft | 478 kts | 114° |
| 2026-04-30 21:02 | 43.40241 | 7.67455 | 35148 ft | 473 kts | 114° |
| 2026-04-30 21:03 | 43.38873 | 7.71560 | 34545 ft | 471 kts | 114° |
| 2026-04-30 21:03 | 43.37514 | 7.75635 | 33897 ft | 469 kts | 114° |
| 2026-04-30 21:03 | 43.36159 | 7.79690 | 33289 ft | 465 kts | 114° |
| 2026-04-30 21:03 | 43.34811 | 7.83707 | 32719 ft | 460 kts | 114° |
| 2026-04-30 21:04 | 43.33475 | 7.87682 | 32126 ft | 456 kts | 114° |
| 2026-04-30 21:04 | 43.32149 | 7.91619 | 31576 ft | 452 kts | 114° |
| 2026-04-30 21:04 | 43.29527 | 7.99392 | 30457 ft | 445 kts | 113° |
| 2026-04-30 21:05 | 43.28232 | 8.03231 | 29865 ft | 442 kts | 113° |
| 2026-04-30 21:05 | 43.26950 | 8.07023 | 29345 ft | 436 kts | 113° |
| 2026-04-30 21:05 | 43.25698 | 8.10722 | 28843 ft | 430 kts | 113° |
| 2026-04-30 21:05 | 43.24448 | 8.14416 | 28358 ft | 425 kts | 113° |
| 2026-04-30 21:06 | 43.23208 | 8.18072 | 27859 ft | 420 kts | 113° |
| 2026-04-30 21:06 | 43.21986 | 8.21679 | 27374 ft | 415 kts | 113° |
| 2026-04-30 21:06 | 43.20773 | 8.25253 | 26894 ft | 411 kts | 113° |
| 2026-04-30 21:06 | 43.19568 | 8.28787 | 26394 ft | 408 kts | 113° |
| 2026-04-30 21:07 | 43.18370 | 8.32293 | 25900 ft | 405 kts | 113° |
| 2026-04-30 21:07 | 43.17177 | 8.35781 | 25396 ft | 403 kts | 112° |
| 2026-04-30 21:07 | 43.15993 | 8.39251 | 24881 ft | 401 kts | 112° |
| 2026-04-30 21:07 | 43.14865 | 8.42732 | 24350 ft | 398 kts | 107° |
| 2026-04-30 21:08 | 43.14154 | 8.46364 | 23871 ft | 392 kts | 98° |
| 2026-04-30 21:08 | 43.13660 | 8.50014 | 23365 ft | 388 kts | 98° |
| 2026-04-30 21:08 | 43.13162 | 8.53615 | 22919 ft | 382 kts | 98° |
| 2026-04-30 21:08 | 43.12663 | 8.57172 | 22474 ft | 378 kts | 98° |
| 2026-04-30 21:09 | 43.12166 | 8.60676 | 22034 ft | 373 kts | 98° |
| 2026-04-30 21:09 | 43.11673 | 8.64145 | 21599 ft | 369 kts | 97° |
| 2026-04-30 21:09 | 43.11188 | 8.67569 | 21158 ft | 365 kts | 98° |
| 2026-04-30 21:09 | 43.10708 | 8.70963 | 20743 ft | 362 kts | 98° |
| 2026-04-30 21:10 | 43.10232 | 8.74332 | 20325 ft | 359 kts | 98° |
| 2026-04-30 21:10 | 43.09763 | 8.77676 | 19894 ft | 356 kts | 98° |
| 2026-04-30 21:10 | 43.09298 | 8.80993 | 19484 ft | 354 kts | 97° |
| 2026-04-30 21:10 | 43.08835 | 8.84291 | 19063 ft | 352 kts | 98° |
| 2026-04-30 21:11 | 43.08372 | 8.87574 | 18651 ft | 351 kts | 97° |
| 2026-04-30 21:11 | 43.07908 | 8.90841 | 18205 ft | 349 kts | 97° |
| 2026-04-30 21:11 | 43.07444 | 8.94084 | 17793 ft | 346 kts | 97° |
| 2026-04-30 21:11 | 43.06980 | 8.97306 | 17394 ft | 343 kts | 98° |
| 2026-04-30 21:12 | 43.06519 | 9.00499 | 16983 ft | 341 kts | 98° |
| 2026-04-30 21:12 | 43.06041 | 9.03659 | 16592 ft | 340 kts | 102° |
| 2026-04-30 21:12 | 43.05144 | 9.06659 | 16189 ft | 342 kts | 118° |
| 2026-04-30 21:12 | 43.03709 | 9.09251 | 15809 ft | 344 kts | 133° |
| 2026-04-30 21:13 | 43.01828 | 9.11266 | 15382 ft | 345 kts | 148° |
| 2026-04-30 21:13 | 42.99767 | 9.12939 | 14972 ft | 344 kts | 148° |
| 2026-04-30 21:13 | 42.97717 | 9.14611 | 14554 ft | 343 kts | 148° |
| 2026-04-30 21:13 | 42.95670 | 9.16285 | 14152 ft | 342 kts | 148° |
| 2026-04-30 21:14 | 42.93631 | 9.17954 | 13718 ft | 341 kts | 148° |
| 2026-04-30 21:14 | 42.91603 | 9.19614 | 13311 ft | 338 kts | 148° |
| 2026-04-30 21:14 | 42.89589 | 9.21262 | 12900 ft | 336 kts | 147° |
| 2026-04-30 21:14 | 42.87595 | 9.22895 | 12510 ft | 333 kts | 147° |
| 2026-04-30 21:15 | 42.85624 | 9.24507 | 12134 ft | 330 kts | 147° |
| 2026-04-30 21:15 | 42.83660 | 9.26110 | 11737 ft | 327 kts | 148° |
| 2026-04-30 21:15 | 42.81717 | 9.27693 | 11368 ft | 324 kts | 148° |
| 2026-04-30 21:15 | 42.79790 | 9.29263 | 10980 ft | 322 kts | 148° |
| 2026-04-30 21:16 | 42.77876 | 9.30823 | 10649 ft | 318 kts | 148° |
| 2026-04-30 21:16 | 42.75994 | 9.32358 | 10314 ft | 314 kts | 148° |
| 2026-04-30 21:16 | 42.74119 | 9.33887 | 9943 ft | 312 kts | 148° |
| 2026-04-30 21:16 | 42.72269 | 9.35395 | 9549 ft | 309 kts | 148° |
| 2026-04-30 21:17 | 42.70441 | 9.36880 | 9192 ft | 304 kts | 148° |
| 2026-04-30 21:17 | 42.68651 | 9.38332 | 8786 ft | 302 kts | 148° |
| 2026-04-30 21:17 | 42.66835 | 9.39802 | 8420 ft | 298 kts | 148° |
| 2026-04-30 21:17 | 42.65083 | 9.41221 | 8070 ft | 295 kts | 148° |
| 2026-04-30 21:18 | 42.63308 | 9.42658 | 7736 ft | 291 kts | 148° |
| 2026-04-30 21:18 | 42.61581 | 9.44056 | 7390 ft | 288 kts | 148° |
| 2026-04-30 21:18 | 42.59869 | 9.45438 | 7059 ft | 285 kts | 148° |
| 2026-04-30 21:18 | 42.58171 | 9.46808 | 6645 ft | 285 kts | 147° |
| 2026-04-30 21:19 | 42.56462 | 9.48183 | 6177 ft | 285 kts | 148° |
| 2026-04-30 21:19 | 42.54750 | 9.49532 | 5828 ft | 284 kts | 148° |
| 2026-04-30 21:19 | 42.53042 | 9.50864 | 5496 ft | 283 kts | 148° |
| 2026-04-30 21:19 | 42.51335 | 9.52190 | 5170 ft | 282 kts | 148° |
| 2026-04-30 21:20 | 42.49632 | 9.53510 | 4829 ft | 281 kts | 148° |
| 2026-04-30 21:20 | 42.47938 | 9.54822 | 4497 ft | 279 kts | 149° |
| 2026-04-30 21:20 | 42.46277 | 9.56107 | 4295 ft | 268 kts | 149° |
| 2026-04-30 21:20 | 42.44713 | 9.57319 | 4235 ft | 252 kts | 149° |
| 2026-04-30 21:21 | 42.43243 | 9.58452 | 4141 ft | 232 kts | 149° |
| 2026-04-30 21:21 | 42.41901 | 9.59472 | 4038 ft | 210 kts | 149° |
| 2026-04-30 21:21 | 42.39507 | 9.61288 | 3898 ft | 178 kts | 149° |
| 2026-04-30 21:22 | 42.38504 | 9.62047 | 3808 ft | 154 kts | 149° |
| 2026-04-30 21:22 | 42.35623 | 9.61441 | 3566 ft | 145 kts | 230° |
| 2026-04-30 21:23 | 42.35111 | 9.60317 | 3485 ft | 139 kts | 255° |
| 2026-04-30 21:23 | 42.34972 | 9.59061 | 3406 ft | 134 kts | 279° |
| 2026-04-30 21:23 | 42.35710 | 9.56889 | 3263 ft | 129 kts | 319° |
| 2026-04-30 21:24 | 42.36508 | 9.56411 | 3229 ft | 127 kts | 347° |
| 2026-04-30 21:24 | 42.37351 | 9.55985 | 3141 ft | 130 kts | 341° |
| 2026-04-30 21:24 | 42.38192 | 9.55576 | 3068 ft | 127 kts | 344° |
| 2026-04-30 21:24 | 42.39021 | 9.55200 | 3027 ft | 126 kts | 345° |
| 2026-04-30 21:25 | 42.40714 | 9.54469 | 2779 ft | 128 kts | 348° |
| 2026-04-30 21:25 | 42.41567 | 9.54109 | 2622 ft | 129 kts | 346° |
| 2026-04-30 21:25 | 42.42415 | 9.53753 | 2447 ft | 127 kts | 346° |
| 2026-04-30 21:26 | 42.44115 | 9.53041 | 2118 ft | 127 kts | 347° |
| 2026-04-30 21:26 | 42.44956 | 9.52689 | 1949 ft | 126 kts | 347° |
| 2026-04-30 21:27 | 42.46619 | 9.51994 | 1602 ft | 126 kts | 348° |
| 2026-04-30 21:27 | 42.47456 | 9.51644 | 1441 ft | 124 kts | 348° |
| 2026-04-30 21:27 | 42.48277 | 9.51300 | 1271 ft | 123 kts | 347° |
| 2026-04-30 21:28 | 42.49906 | 9.50620 | 937 ft | 124 kts | 347° |
| 2026-04-30 21:28 | 42.50726 | 9.50276 | 778 ft | 123 kts | 348° |
| 2026-04-30 21:28 | 42.52373 | 9.49586 | 449 ft | 126 kts | 342° |
| 2026-04-30 21:29 | 42.53212 | 9.49235 | 277 ft | 126 kts | 341° |
| 2026-04-30 21:29 | 42.55412 | 9.48310 | 35 ft | 58 kts | 343° |
| 2026-04-30 21:30 | 42.55801 | 9.48146 | 27 ft | 25 kts | 342° |
| 2026-04-30 21:31 | 42.55946 | 9.47925 | 25 ft | 0 kts | 254° |
| 2026-04-30 21:34 | 42.55930 | 9.47888 | 30 ft | 8 kts | 229° |
| 2026-04-30 21:35 | 42.55858 | 9.47872 | 27 ft | 12 kts | 166° |
| 2026-04-30 21:35 | 42.55771 | 9.47907 | 29 ft | 13 kts | 163° |
| 2026-04-30 21:35 | 42.55679 | 9.47946 | 31 ft | 15 kts | 162° |
| 2026-04-30 21:35 | 42.55571 | 9.47990 | 31 ft | 18 kts | 163° |
| 2026-04-30 21:36 | 42.55447 | 9.48042 | 33 ft | 19 kts | 163° |
| 2026-04-30 21:36 | 42.55315 | 9.48098 | 34 ft | 21 kts | 165° |
| 2026-04-30 21:37 | 42.54903 | 9.48249 | 35 ft | 19 kts | 164° |
| 2026-04-30 21:37 | 42.54816 | 9.48287 | 32 ft | 13 kts | 162° |
| 2026-04-30 21:37 | 42.54716 | 9.48329 | 32 ft | 17 kts | 163° |
| 2026-04-30 21:37 | 42.54634 | 9.48363 | 33 ft | 11 kts | 163° |
| 2026-04-30 21:38 | 42.54577 | 9.48381 | 33 ft | 8 kts | 182° |
| 2026-04-30 21:38 | 42.54564 | 9.48348 | 35 ft | 1 kts | 268° |
| 2026-04-30 21:38 | 42.54568 | 9.48312 | 36 ft | 8 kts | 281° |
| 2026-04-30 21:38 | 42.54574 | 9.48273 | 36 ft | 1 kts | 282° |
| 2026-04-30 21:39 | 42.54576 | 9.48260 | 36 ft | 1 kts | 283° |